Aérodrome :
LOGIN :

S'inscrire | Disclaimer

   EN    FR    IT 

 










Légende :    VFR   VFR Marginal   IFR   IFR Intensif   IFR Très Intensif
Visi : 
Plafond : 
>= 8 km
>= 3000ft
5 à 8 km
1000 à 3000 ft
1500m à 5 km
500 à 1000 ft
800 à 1500m
200 à 500 ft
< 800m
< 200 ft
Symboles :   Orages  Brouillard  Fortes neiges  Fortes précipitations  Vent > 20 kt
SIGMETs :   Divers  Orages  Givrage  Turbulence  Onde Orograph.  Cendres Volcan.






- Altitude de l'aérodrome : 605 ft
- Code IATA : BAY


LRBM - Tautii Magheraus

DERNIER METAR :
  • 280500Z 00000KT 9999 FEW035 BKN049 16/14 Q1017

METARs EXPIRÉS :
  • 280430Z 07003KT 9999 BKN049 16/14 Q1017
  • 280400Z 09004KT 9999 OVC052 16/14 Q1017
  • 280330Z AUTO 10004KT 9999 OVC055/// 17/14 Q1017
  • 280300Z AUTO 07004KT 9999 BKN055/// 17/14 Q1016
  • 280230Z AUTO 08003KT 9999 SCT055/// BKN070/// 16/14 Q1016

TAF TAF LRBM
Valide du 28 à 03h jusqu'au 28 à 12h UTC


280200Z 2803/2812 VRB04KT 9999 BKN045
BECMG 2808/2810 5000 -RA BKN015 OVC035
TEMPO 2810/2812 3000 SHRA BKN005 SCT025CB



MET'MAP, la Météo Aéronautique d'un coup d'oeil ! - Copyright ORBIFLY Décembre 2007 - Disclaimer

ORBIFLY MET'MAP TEAM :

Programmation & Développement : Alexandra Zaïnal
Sur une idée originale de : Baudouin d'Aumeries
Assistance à la programmation : Marc-Olivier Méhu
Soutien technique & logistique : Manuel Goepfert

Contact : metmap@orbifly.com




SOURCES & CREDITS :

   NOAA